sensor_id;sensor_type;location;lat;lon;timestamp;P1;durP1;ratioP1;P2;durP2;ratioP2
69754;SDS011;57023;52.218;5.158;2022-08-18T00:01:43;27.08;;;19.73;;
69754;SDS011;57023;52.218;5.158;2022-08-18T00:04:10;30.08;;;19.30;;
69754;SDS011;57023;52.218;5.158;2022-08-18T00:06:35;25.33;;;19.60;;
69754;SDS011;57023;52.218;5.158;2022-08-18T00:09:04;25.77;;;18.65;;
69754;SDS011;57023;52.218;5.158;2022-08-18T00:11:32;24.13;;;18.25;;
69754;SDS011;57023;52.218;5.158;2022-08-18T00:14:04;23.20;;;18.08;;
69754;SDS011;57023;52.218;5.158;2022-08-18T00:16:29;24.92;;;17.02;;
69754;SDS011;57023;52.218;5.158;2022-08-18T00:18:55;26.73;;;18.52;;
69754;SDS011;57023;52.218;5.158;2022-08-18T00:21:20;26.58;;;18.13;;
69754;SDS011;57023;52.218;5.158;2022-08-18T00:23:48;28.85;;;18.80;;
69754;SDS011;57023;52.218;5.158;2022-08-18T00:26:14;26.42;;;18.02;;
69754;SDS011;57023;52.218;5.158;2022-08-18T00:28:39;26.40;;;17.58;;
69754;SDS011;57023;52.218;5.158;2022-08-18T00:31:05;25.02;;;16.73;;
69754;SDS011;57023;52.218;5.158;2022-08-18T00:33:30;25.92;;;18.00;;
69754;SDS011;57023;52.218;5.158;2022-08-18T00:35:56;23.63;;;16.63;;
69754;SDS011;57023;52.218;5.158;2022-08-18T00:38:21;28.20;;;17.42;;
69754;SDS011;57023;52.218;5.158;2022-08-18T00:40:47;27.35;;;17.48;;
69754;SDS011;57023;52.218;5.158;2022-08-18T00:43:20;27.77;;;17.92;;
69754;SDS011;57023;52.218;5.158;2022-08-18T00:45:49;25.30;;;17.00;;
69754;SDS011;57023;52.218;5.158;2022-08-18T00:48:15;23.73;;;16.75;;
69754;SDS011;57023;52.218;5.158;2022-08-18T00:50:59;30.70;;;16.73;;
69754;SDS011;57023;52.218;5.158;2022-08-18T00:53:29;23.98;;;16.60;;
69754;SDS011;57023;52.218;5.158;2022-08-18T00:56:02;24.88;;;17.15;;
69754;SDS011;57023;52.218;5.158;2022-08-18T00:58:42;26.58;;;17.17;;
69754;SDS011;57023;52.218;5.158;2022-08-18T01:01:11;25.23;;;17.40;;
69754;SDS011;57023;52.218;5.158;2022-08-18T01:03:37;20.70;;;16.20;;
69754;SDS011;57023;52.218;5.158;2022-08-18T01:06:11;26.70;;;17.25;;
69754;SDS011;57023;52.218;5.158;2022-08-18T01:08:39;23.55;;;16.50;;
69754;SDS011;57023;52.218;5.158;2022-08-18T01:11:05;26.43;;;16.63;;
69754;SDS011;57023;52.218;5.158;2022-08-18T01:13:31;23.33;;;15.80;;
69754;SDS011;57023;52.218;5.158;2022-08-18T01:15:57;26.17;;;16.00;;
69754;SDS011;57023;52.218;5.158;2022-08-18T01:18:22;24.10;;;16.08;;
69754;SDS011;57023;52.218;5.158;2022-08-18T01:21:14;21.75;;;16.10;;
69754;SDS011;57023;52.218;5.158;2022-08-18T01:24:02;29.30;;;16.27;;
69754;SDS011;57023;52.218;5.158;2022-08-18T01:26:29;23.63;;;17.33;;
69754;SDS011;57023;52.218;5.158;2022-08-18T01:28:57;23.08;;;16.73;;
69754;SDS011;57023;52.218;5.158;2022-08-18T01:31:33;26.25;;;16.48;;
69754;SDS011;57023;52.218;5.158;2022-08-18T01:34:04;25.73;;;16.30;;
69754;SDS011;57023;52.218;5.158;2022-08-18T01:36:31;25.58;;;16.55;;
69754;SDS011;57023;52.218;5.158;2022-08-18T01:38:58;25.63;;;15.57;;
69754;SDS011;57023;52.218;5.158;2022-08-18T01:41:24;24.70;;;17.17;;
69754;SDS011;57023;52.218;5.158;2022-08-18T01:43:50;23.83;;;15.80;;
69754;SDS011;57023;52.218;5.158;2022-08-18T01:46:17;22.27;;;15.80;;
69754;SDS011;57023;52.218;5.158;2022-08-18T01:48:46;28.23;;;16.30;;
69754;SDS011;57023;52.218;5.158;2022-08-18T01:53:40;22.43;;;15.70;;
69754;SDS011;57023;52.218;5.158;2022-08-18T01:56:06;21.55;;;15.10;;
69754;SDS011;57023;52.218;5.158;2022-08-18T01:58:32;22.95;;;16.08;;
69754;SDS011;57023;52.218;5.158;2022-08-18T02:00:58;27.33;;;16.27;;
69754;SDS011;57023;52.218;5.158;2022-08-18T02:03:30;22.45;;;15.38;;
69754;SDS011;57023;52.218;5.158;2022-08-18T02:06:00;24.67;;;15.63;;
69754;SDS011;57023;52.218;5.158;2022-08-18T02:08:27;21.67;;;16.13;;
69754;SDS011;57023;52.218;5.158;2022-08-18T02:10:53;22.50;;;16.25;;
69754;SDS011;57023;52.218;5.158;2022-08-18T02:13:18;24.13;;;15.27;;
69754;SDS011;57023;52.218;5.158;2022-08-18T02:15:44;23.77;;;16.38;;
69754;SDS011;57023;52.218;5.158;2022-08-18T02:18:13;28.17;;;16.77;;
69754;SDS011;57023;52.218;5.158;2022-08-18T02:20:39;28.60;;;17.15;;
69754;SDS011;57023;52.218;5.158;2022-08-18T02:23:05;25.70;;;16.30;;
69754;SDS011;57023;52.218;5.158;2022-08-18T02:25:30;26.65;;;16.90;;
69754;SDS011;57023;52.218;5.158;2022-08-18T02:27:56;27.50;;;17.23;;
69754;SDS011;57023;52.218;5.158;2022-08-18T02:30:22;23.60;;;16.65;;
69754;SDS011;57023;52.218;5.158;2022-08-18T02:32:47;25.75;;;16.38;;
69754;SDS011;57023;52.218;5.158;2022-08-18T02:35:12;27.90;;;17.55;;
69754;SDS011;57023;52.218;5.158;2022-08-18T02:37:41;27.02;;;17.35;;
69754;SDS011;57023;52.218;5.158;2022-08-18T02:40:11;25.42;;;17.80;;
69754;SDS011;57023;52.218;5.158;2022-08-18T02:42:38;25.45;;;17.45;;
69754;SDS011;57023;52.218;5.158;2022-08-18T02:45:04;31.95;;;19.55;;
69754;SDS011;57023;52.218;5.158;2022-08-18T02:47:30;34.47;;;19.20;;
69754;SDS011;57023;52.218;5.158;2022-08-18T02:49:55;29.65;;;18.35;;
69754;SDS011;57023;52.218;5.158;2022-08-18T02:52:21;28.77;;;17.30;;
69754;SDS011;57023;52.218;5.158;2022-08-18T02:54:46;25.67;;;16.83;;
69754;SDS011;57023;52.218;5.158;2022-08-18T02:57:12;24.80;;;17.13;;
69754;SDS011;57023;52.218;5.158;2022-08-18T02:59:38;24.85;;;16.67;;
69754;SDS011;57023;52.218;5.158;2022-08-18T03:02:05;26.17;;;17.05;;
69754;SDS011;57023;52.218;5.158;2022-08-18T03:04:31;28.02;;;16.88;;
69754;SDS011;57023;52.218;5.158;2022-08-18T03:06:57;25.20;;;17.27;;
69754;SDS011;57023;52.218;5.158;2022-08-18T03:09:24;24.75;;;16.38;;
69754;SDS011;57023;52.218;5.158;2022-08-18T03:11:50;24.15;;;16.08;;
69754;SDS011;57023;52.218;5.158;2022-08-18T03:14:17;25.30;;;17.33;;
69754;SDS011;57023;52.218;5.158;2022-08-18T03:16:44;28.73;;;17.77;;
69754;SDS011;57023;52.218;5.158;2022-08-18T03:19:11;25.80;;;16.83;;
69754;SDS011;57023;52.218;5.158;2022-08-18T03:21:40;29.40;;;17.17;;
69754;SDS011;57023;52.218;5.158;2022-08-18T03:24:06;27.13;;;16.48;;
69754;SDS011;57023;52.218;5.158;2022-08-18T03:26:32;24.63;;;16.52;;
69754;SDS011;57023;52.218;5.158;2022-08-18T03:28:58;23.75;;;16.08;;
69754;SDS011;57023;52.218;5.158;2022-08-18T03:31:24;26.20;;;16.85;;
69754;SDS011;57023;52.218;5.158;2022-08-18T03:33:51;27.50;;;17.98;;
69754;SDS011;57023;52.218;5.158;2022-08-18T03:36:20;26.88;;;18.70;;
69754;SDS011;57023;52.218;5.158;2022-08-18T03:38:47;26.00;;;17.90;;
69754;SDS011;57023;52.218;5.158;2022-08-18T03:41:14;29.17;;;17.83;;
69754;SDS011;57023;52.218;5.158;2022-08-18T03:43:41;29.27;;;18.10;;
69754;SDS011;57023;52.218;5.158;2022-08-18T03:46:07;29.60;;;18.38;;
69754;SDS011;57023;52.218;5.158;2022-08-18T03:48:36;29.15;;;18.15;;
69754;SDS011;57023;52.218;5.158;2022-08-18T03:51:04;28.55;;;18.27;;
69754;SDS011;57023;52.218;5.158;2022-08-18T03:53:31;26.88;;;17.63;;
69754;SDS011;57023;52.218;5.158;2022-08-18T03:55:57;22.98;;;17.02;;
69754;SDS011;57023;52.218;5.158;2022-08-18T03:58:22;31.58;;;19.88;;
69754;SDS011;57023;52.218;5.158;2022-08-18T04:00:48;31.87;;;19.97;;
69754;SDS011;57023;52.218;5.158;2022-08-18T04:03:13;29.92;;;18.98;;
69754;SDS011;57023;52.218;5.158;2022-08-18T04:05:39;28.33;;;20.27;;
69754;SDS011;57023;52.218;5.158;2022-08-18T04:08:04;31.98;;;20.85;;
69754;SDS011;57023;52.218;5.158;2022-08-18T04:10:30;35.33;;;21.67;;
69754;SDS011;57023;52.218;5.158;2022-08-18T04:12:56;29.80;;;21.20;;
69754;SDS011;57023;52.218;5.158;2022-08-18T04:15:21;29.00;;;20.58;;
69754;SDS011;57023;52.218;5.158;2022-08-18T04:17:47;36.30;;;21.52;;
69754;SDS011;57023;52.218;5.158;2022-08-18T04:20:12;35.42;;;22.38;;
69754;SDS011;57023;52.218;5.158;2022-08-18T04:22:38;38.85;;;22.83;;
69754;SDS011;57023;52.218;5.158;2022-08-18T04:25:04;34.63;;;21.30;;
69754;SDS011;57023;52.218;5.158;2022-08-18T04:27:33;35.50;;;21.70;;
69754;SDS011;57023;52.218;5.158;2022-08-18T04:29:59;33.78;;;21.77;;
69754;SDS011;57023;52.218;5.158;2022-08-18T04:32:24;37.95;;;21.85;;
69754;SDS011;57023;52.218;5.158;2022-08-18T04:34:49;33.65;;;21.55;;
69754;SDS011;57023;52.218;5.158;2022-08-18T04:37:15;34.40;;;21.40;;
69754;SDS011;57023;52.218;5.158;2022-08-18T04:39:41;34.25;;;21.52;;
69754;SDS011;57023;52.218;5.158;2022-08-18T04:42:07;33.88;;;21.58;;
69754;SDS011;57023;52.218;5.158;2022-08-18T04:44:33;38.95;;;23.38;;
69754;SDS011;57023;52.218;5.158;2022-08-18T04:47:01;40.05;;;23.42;;
69754;SDS011;57023;52.218;5.158;2022-08-18T04:49:26;38.08;;;22.27;;
69754;SDS011;57023;52.218;5.158;2022-08-18T04:51:52;32.53;;;20.88;;
69754;SDS011;57023;52.218;5.158;2022-08-18T04:54:37;36.80;;;22.48;;
69754;SDS011;57023;52.218;5.158;2022-08-18T04:57:12;41.30;;;23.15;;
69754;SDS011;57023;52.218;5.158;2022-08-18T04:59:40;41.35;;;24.33;;
69754;SDS011;57023;52.218;5.158;2022-08-18T05:02:08;39.72;;;23.58;;
69754;SDS011;57023;52.218;5.158;2022-08-18T05:04:34;37.88;;;22.90;;
69754;SDS011;57023;52.218;5.158;2022-08-18T05:07:01;44.67;;;25.30;;
69754;SDS011;57023;52.218;5.158;2022-08-18T05:09:28;41.65;;;24.40;;
69754;SDS011;57023;52.218;5.158;2022-08-18T05:11:53;39.58;;;23.92;;
69754;SDS011;57023;52.218;5.158;2022-08-18T05:14:18;37.97;;;23.27;;
69754;SDS011;57023;52.218;5.158;2022-08-18T05:16:45;39.33;;;24.08;;
69754;SDS011;57023;52.218;5.158;2022-08-18T05:19:10;46.83;;;25.02;;
69754;SDS011;57023;52.218;5.158;2022-08-18T05:21:36;38.75;;;23.45;;
69754;SDS011;57023;52.218;5.158;2022-08-18T05:24:06;36.95;;;24.70;;
69754;SDS011;57023;52.218;5.158;2022-08-18T05:26:32;37.50;;;23.50;;
69754;SDS011;57023;52.218;5.158;2022-08-18T05:28:58;40.95;;;24.45;;
69754;SDS011;57023;52.218;5.158;2022-08-18T05:31:24;43.47;;;24.55;;
69754;SDS011;57023;52.218;5.158;2022-08-18T05:33:50;42.92;;;25.05;;
69754;SDS011;57023;52.218;5.158;2022-08-18T05:38:58;37.67;;;23.98;;
69754;SDS011;57023;52.218;5.158;2022-08-18T05:41:39;46.80;;;24.50;;
69754;SDS011;57023;52.218;5.158;2022-08-18T05:44:06;39.83;;;24.05;;
69754;SDS011;57023;52.218;5.158;2022-08-18T05:49:11;38.97;;;23.20;;
69754;SDS011;57023;52.218;5.158;2022-08-18T05:51:57;38.90;;;23.48;;
69754;SDS011;57023;52.218;5.158;2022-08-18T05:54:26;35.78;;;22.60;;
69754;SDS011;57023;52.218;5.158;2022-08-18T05:57:17;36.88;;;23.60;;
69754;SDS011;57023;52.218;5.158;2022-08-18T05:59:45;43.25;;;25.15;;
69754;SDS011;57023;52.218;5.158;2022-08-18T06:04:48;33.97;;;22.17;;
69754;SDS011;57023;52.218;5.158;2022-08-18T06:07:28;35.40;;;21.45;;
69754;SDS011;57023;52.218;5.158;2022-08-18T06:09:58;36.83;;;22.38;;
69754;SDS011;57023;52.218;5.158;2022-08-18T06:14:58;36.85;;;21.25;;
69754;SDS011;57023;52.218;5.158;2022-08-18T06:20:28;34.75;;;22.05;;
69754;SDS011;57023;52.218;5.158;2022-08-18T06:37:33;29.88;;;18.95;;
69754;SDS011;57023;52.218;5.158;2022-08-18T06:40:20;27.40;;;18.13;;
69754;SDS011;57023;52.218;5.158;2022-08-18T06:42:46;26.27;;;17.50;;
69754;SDS011;57023;52.218;5.158;2022-08-18T06:45:12;25.17;;;17.20;;
69754;SDS011;57023;52.218;5.158;2022-08-18T06:47:45;24.75;;;16.75;;
69754;SDS011;57023;52.218;5.158;2022-08-18T06:50:33;25.63;;;16.50;;
69754;SDS011;57023;52.218;5.158;2022-08-18T06:53:03;24.33;;;14.60;;
69754;SDS011;57023;52.218;5.158;2022-08-18T06:55:39;23.63;;;14.45;;
69754;SDS011;57023;52.218;5.158;2022-08-18T06:58:28;19.90;;;13.93;;
69754;SDS011;57023;52.218;5.158;2022-08-18T07:00:55;18.65;;;13.50;;
69754;SDS011;57023;52.218;5.158;2022-08-18T07:06:06;18.27;;;12.00;;
69754;SDS011;57023;52.218;5.158;2022-08-18T07:08:41;19.35;;;12.07;;
69754;SDS011;57023;52.218;5.158;2022-08-18T07:16:45;17.77;;;12.20;;
69754;SDS011;57023;52.218;5.158;2022-08-18T07:19:12;18.40;;;12.48;;
69754;SDS011;57023;52.218;5.158;2022-08-18T07:21:44;17.15;;;11.88;;
69754;SDS011;57023;52.218;5.158;2022-08-18T07:24:22;15.55;;;11.52;;
69754;SDS011;57023;52.218;5.158;2022-08-18T07:26:58;13.73;;;11.13;;
69754;SDS011;57023;52.218;5.158;2022-08-18T07:32:38;13.93;;;9.80;;
69754;SDS011;57023;52.218;5.158;2022-08-18T07:35:08;14.40;;;10.07;;
69754;SDS011;57023;52.218;5.158;2022-08-18T07:40:21;15.20;;;10.82;;
69754;SDS011;57023;52.218;5.158;2022-08-18T07:45:30;12.45;;;9.88;;
69754;SDS011;57023;52.218;5.158;2022-08-18T07:48:01;12.35;;;9.52;;
69754;SDS011;57023;52.218;5.158;2022-08-18T07:51:14;12.02;;;8.60;;
69754;SDS011;57023;52.218;5.158;2022-08-18T07:56:22;13.38;;;8.90;;
69754;SDS011;57023;52.218;5.158;2022-08-18T07:58:57;15.00;;;9.13;;
69754;SDS011;57023;52.218;5.158;2022-08-18T08:01:37;11.90;;;8.65;;
69754;SDS011;57023;52.218;5.158;2022-08-18T08:04:29;13.57;;;8.85;;
69754;SDS011;57023;52.218;5.158;2022-08-18T08:18:10;16.65;;;11.60;;
69754;SDS011;57023;52.218;5.158;2022-08-18T08:20:42;15.75;;;10.65;;
69754;SDS011;57023;52.218;5.158;2022-08-18T08:25:47;15.25;;;10.45;;
69754;SDS011;57023;52.218;5.158;2022-08-18T08:31:01;12.45;;;9.00;;
69754;SDS011;57023;52.218;5.158;2022-08-18T08:36:23;11.55;;;8.15;;
69754;SDS011;57023;52.218;5.158;2022-08-18T08:38:53;10.35;;;7.53;;
69754;SDS011;57023;52.218;5.158;2022-08-18T08:41:21;10.38;;;7.20;;
69754;SDS011;57023;52.218;5.158;2022-08-18T08:43:56;12.25;;;7.63;;
69754;SDS011;57023;52.218;5.158;2022-08-18T08:46:41;12.30;;;7.20;;
69754;SDS011;57023;52.218;5.158;2022-08-18T08:49:24;8.88;;;6.45;;
69754;SDS011;57023;52.218;5.158;2022-08-18T08:51:58;9.05;;;6.97;;
69754;SDS011;57023;52.218;5.158;2022-08-18T08:54:30;10.20;;;7.63;;
69754;SDS011;57023;52.218;5.158;2022-08-18T08:57:03;8.90;;;6.65;;
69754;SDS011;57023;52.218;5.158;2022-08-18T08:59:29;8.90;;;6.87;;
69754;SDS011;57023;52.218;5.158;2022-08-18T09:10:11;10.05;;;7.32;;
69754;SDS011;57023;52.218;5.158;2022-08-18T09:13:17;9.32;;;7.13;;
69754;SDS011;57023;52.218;5.158;2022-08-18T09:16:05;11.82;;;7.80;;
69754;SDS011;57023;52.218;5.158;2022-08-18T09:24:01;13.10;;;9.00;;
69754;SDS011;57023;52.218;5.158;2022-08-18T09:34:47;10.60;;;8.32;;
69754;SDS011;57023;52.218;5.158;2022-08-18T09:37:45;11.73;;;8.48;;
69754;SDS011;57023;52.218;5.158;2022-08-18T09:40:33;12.85;;;8.35;;
69754;SDS011;57023;52.218;5.158;2022-08-18T09:43:26;11.02;;;7.72;;
69754;SDS011;57023;52.218;5.158;2022-08-18T09:45:58;11.23;;;7.50;;
69754;SDS011;57023;52.218;5.158;2022-08-18T09:48:37;9.90;;;7.55;;
69754;SDS011;57023;52.218;5.158;2022-08-18T09:56:11;9.30;;;7.07;;
69754;SDS011;57023;52.218;5.158;2022-08-18T10:06:40;7.35;;;5.38;;
69754;SDS011;57023;52.218;5.158;2022-08-18T10:09:27;9.93;;;6.10;;
69754;SDS011;57023;52.218;5.158;2022-08-18T10:28:56;9.32;;;6.07;;
69754;SDS011;57023;52.218;5.158;2022-08-18T10:31:23;9.50;;;6.30;;
69754;SDS011;57023;52.218;5.158;2022-08-18T10:36:51;9.27;;;6.22;;
69754;SDS011;57023;52.218;5.158;2022-08-18T10:39:41;9.32;;;6.10;;
69754;SDS011;57023;52.218;5.158;2022-08-18T10:42:05;10.20;;;6.28;;
69754;SDS011;57023;52.218;5.158;2022-08-18T10:44:36;8.82;;;6.07;;
69754;SDS011;57023;52.218;5.158;2022-08-18T10:47:06;8.05;;;6.68;;
69754;SDS011;57023;52.218;5.158;2022-08-18T10:49:31;10.27;;;6.53;;
69754;SDS011;57023;52.218;5.158;2022-08-18T10:52:04;9.85;;;6.40;;
69754;SDS011;57023;52.218;5.158;2022-08-18T10:57:25;7.65;;;6.03;;
69754;SDS011;57023;52.218;5.158;2022-08-18T10:59:58;7.80;;;5.72;;
69754;SDS011;57023;52.218;5.158;2022-08-18T11:05:09;9.73;;;6.55;;
69754;SDS011;57023;52.218;5.158;2022-08-18T11:07:35;7.47;;;6.13;;
69754;SDS011;57023;52.218;5.158;2022-08-18T11:10:17;7.28;;;6.07;;
69754;SDS011;57023;52.218;5.158;2022-08-18T11:22:00;8.63;;;6.28;;
69754;SDS011;57023;52.218;5.158;2022-08-18T11:24:22;8.15;;;5.97;;
69754;SDS011;57023;52.218;5.158;2022-08-18T11:26:51;8.85;;;5.65;;
69754;SDS011;57023;52.218;5.158;2022-08-18T11:29:26;7.53;;;5.70;;
69754;SDS011;57023;52.218;5.158;2022-08-18T11:39:51;7.40;;;5.00;;
69754;SDS011;57023;52.218;5.158;2022-08-18T11:42:18;6.80;;;4.80;;
69754;SDS011;57023;52.218;5.158;2022-08-18T11:47:14;6.73;;;4.40;;
69754;SDS011;57023;52.218;5.158;2022-08-18T11:49:51;7.05;;;4.50;;
69754;SDS011;57023;52.218;5.158;2022-08-18T11:52:25;6.63;;;4.47;;
69754;SDS011;57023;52.218;5.158;2022-08-18T11:54:57;8.05;;;4.50;;
69754;SDS011;57023;52.218;5.158;2022-08-18T11:59:55;7.22;;;4.10;;
69754;SDS011;57023;52.218;5.158;2022-08-18T12:02:21;6.60;;;4.20;;
69754;SDS011;57023;52.218;5.158;2022-08-18T12:04:59;6.45;;;4.10;;
69754;SDS011;57023;52.218;5.158;2022-08-18T12:07:28;8.07;;;4.53;;
69754;SDS011;57023;52.218;5.158;2022-08-18T12:10:16;6.82;;;4.22;;
69754;SDS011;57023;52.218;5.158;2022-08-18T12:12:45;7.97;;;4.30;;
69754;SDS011;57023;52.218;5.158;2022-08-18T12:17:38;6.07;;;4.10;;
69754;SDS011;57023;52.218;5.158;2022-08-18T12:22:32;7.32;;;4.30;;
69754;SDS011;57023;52.218;5.158;2022-08-18T12:24:59;6.80;;;4.07;;
69754;SDS011;57023;52.218;5.158;2022-08-18T12:27:25;6.15;;;3.92;;
69754;SDS011;57023;52.218;5.158;2022-08-18T12:29:52;5.30;;;3.83;;
69754;SDS011;57023;52.218;5.158;2022-08-18T12:32:19;6.30;;;4.03;;
69754;SDS011;57023;52.218;5.158;2022-08-18T12:34:46;6.20;;;3.63;;
69754;SDS011;57023;52.218;5.158;2022-08-18T12:37:13;5.07;;;3.58;;
69754;SDS011;57023;52.218;5.158;2022-08-18T12:39:40;5.07;;;3.40;;
69754;SDS011;57023;52.218;5.158;2022-08-18T12:44:32;4.60;;;3.20;;
69754;SDS011;57023;52.218;5.158;2022-08-18T12:46:58;5.75;;;3.20;;
69754;SDS011;57023;52.218;5.158;2022-08-18T12:49:25;5.32;;;3.40;;
69754;SDS011;57023;52.218;5.158;2022-08-18T12:51:50;5.23;;;3.10;;
69754;SDS011;57023;52.218;5.158;2022-08-18T12:54:18;6.28;;;3.40;;
69754;SDS011;57023;52.218;5.158;2022-08-18T12:56:43;4.77;;;3.20;;
69754;SDS011;57023;52.218;5.158;2022-08-18T12:59:13;6.53;;;3.42;;
69754;SDS011;57023;52.218;5.158;2022-08-18T13:01:39;4.97;;;3.30;;
69754;SDS011;57023;52.218;5.158;2022-08-18T13:04:04;6.05;;;3.22;;
69754;SDS011;57023;52.218;5.158;2022-08-18T13:06:30;5.07;;;3.30;;
69754;SDS011;57023;52.218;5.158;2022-08-18T13:08:57;4.70;;;3.30;;
69754;SDS011;57023;52.218;5.158;2022-08-18T13:11:23;5.30;;;3.63;;
69754;SDS011;57023;52.218;5.158;2022-08-18T13:13:49;6.70;;;3.43;;
69754;SDS011;57023;52.218;5.158;2022-08-18T13:16:15;5.70;;;3.30;;
69754;SDS011;57023;52.218;5.158;2022-08-18T13:18:42;5.05;;;3.63;;
69754;SDS011;57023;52.218;5.158;2022-08-18T13:21:08;5.53;;;3.33;;
69754;SDS011;57023;52.218;5.158;2022-08-18T13:23:35;5.32;;;3.38;;
69754;SDS011;57023;52.218;5.158;2022-08-18T13:26:02;6.47;;;3.60;;
69754;SDS011;57023;52.218;5.158;2022-08-18T13:28:30;4.95;;;3.25;;
69754;SDS011;57023;52.218;5.158;2022-08-18T13:33:24;6.07;;;3.33;;
69754;SDS011;57023;52.218;5.158;2022-08-18T13:35:50;5.22;;;3.22;;
69754;SDS011;57023;52.218;5.158;2022-08-18T13:38:16;6.75;;;3.30;;
69754;SDS011;57023;52.218;5.158;2022-08-18T13:40:47;5.38;;;3.45;;
69754;SDS011;57023;52.218;5.158;2022-08-18T13:43:17;5.32;;;3.20;;
69754;SDS011;57023;52.218;5.158;2022-08-18T13:45:45;5.25;;;3.20;;
69754;SDS011;57023;52.218;5.158;2022-08-18T13:48:13;5.63;;;3.42;;
69754;SDS011;57023;52.218;5.158;2022-08-18T13:50:38;5.73;;;3.40;;
69754;SDS011;57023;52.218;5.158;2022-08-18T13:53:04;6.43;;;3.30;;
69754;SDS011;57023;52.218;5.158;2022-08-18T13:55:31;5.95;;;3.45;;
69754;SDS011;57023;52.218;5.158;2022-08-18T13:57:57;5.70;;;3.40;;
69754;SDS011;57023;52.218;5.158;2022-08-18T14:00:22;6.37;;;3.70;;
69754;SDS011;57023;52.218;5.158;2022-08-18T14:02:49;5.50;;;3.40;;
69754;SDS011;57023;52.218;5.158;2022-08-18T14:05:17;6.40;;;3.63;;
69754;SDS011;57023;52.218;5.158;2022-08-18T14:07:43;5.22;;;3.60;;
69754;SDS011;57023;52.218;5.158;2022-08-18T14:10:09;6.40;;;3.53;;
69754;SDS011;57023;52.218;5.158;2022-08-18T14:12:35;6.03;;;3.60;;
69754;SDS011;57023;52.218;5.158;2022-08-18T14:15:02;5.15;;;3.30;;
69754;SDS011;57023;52.218;5.158;2022-08-18T14:17:31;5.68;;;3.70;;
69754;SDS011;57023;52.218;5.158;2022-08-18T14:19:56;6.20;;;3.75;;
69754;SDS011;57023;52.218;5.158;2022-08-18T14:22:40;5.20;;;3.60;;
69754;SDS011;57023;52.218;5.158;2022-08-18T14:25:24;5.88;;;3.60;;
69754;SDS011;57023;52.218;5.158;2022-08-18T14:28:08;5.07;;;3.60;;
69754;SDS011;57023;52.218;5.158;2022-08-18T14:30:34;6.43;;;3.90;;
69754;SDS011;57023;52.218;5.158;2022-08-18T14:33:00;6.95;;;3.55;;
69754;SDS011;57023;52.218;5.158;2022-08-18T14:35:25;5.87;;;3.80;;
69754;SDS011;57023;52.218;5.158;2022-08-18T14:37:51;7.60;;;4.00;;
69754;SDS011;57023;52.218;5.158;2022-08-18T14:40:19;6.78;;;4.18;;
69754;SDS011;57023;52.218;5.158;2022-08-18T14:42:45;5.77;;;3.80;;
69754;SDS011;57023;52.218;5.158;2022-08-18T14:45:10;7.43;;;4.53;;
69754;SDS011;57023;52.218;5.158;2022-08-18T14:47:39;6.38;;;4.20;;
69754;SDS011;57023;52.218;5.158;2022-08-18T14:50:06;7.47;;;4.43;;
69754;SDS011;57023;52.218;5.158;2022-08-18T14:52:34;7.20;;;4.22;;
69754;SDS011;57023;52.218;5.158;2022-08-18T14:54:59;7.50;;;4.50;;
69754;SDS011;57023;52.218;5.158;2022-08-18T14:57:25;5.18;;;4.05;;
69754;SDS011;57023;52.218;5.158;2022-08-18T14:59:50;6.57;;;4.10;;
69754;SDS011;57023;52.218;5.158;2022-08-18T15:02:17;5.57;;;4.00;;
69754;SDS011;57023;52.218;5.158;2022-08-18T15:04:42;6.03;;;3.80;;
69754;SDS011;57023;52.218;5.158;2022-08-18T15:07:08;6.60;;;4.20;;
69754;SDS011;57023;52.218;5.158;2022-08-18T15:09:34;5.67;;;3.80;;
69754;SDS011;57023;52.218;5.158;2022-08-18T15:11:59;6.60;;;4.00;;
69754;SDS011;57023;52.218;5.158;2022-08-18T15:14:25;6.63;;;3.83;;
69754;SDS011;57023;52.218;5.158;2022-08-18T15:16:51;7.55;;;4.25;;
69754;SDS011;57023;52.218;5.158;2022-08-18T15:19:17;6.43;;;4.63;;
69754;SDS011;57023;52.218;5.158;2022-08-18T15:21:42;6.53;;;4.80;;
69754;SDS011;57023;52.218;5.158;2022-08-18T15:24:26;7.00;;;4.20;;
69754;SDS011;57023;52.218;5.158;2022-08-18T15:27:10;6.63;;;4.20;;
69754;SDS011;57023;52.218;5.158;2022-08-18T15:29:36;5.53;;;4.13;;
69754;SDS011;57023;52.218;5.158;2022-08-18T15:32:01;6.00;;;4.03;;
69754;SDS011;57023;52.218;5.158;2022-08-18T15:34:26;7.80;;;4.57;;
69754;SDS011;57023;52.218;5.158;2022-08-18T15:36:52;6.63;;;3.90;;
69754;SDS011;57023;52.218;5.158;2022-08-18T15:39:19;6.75;;;3.60;;
69754;SDS011;57023;52.218;5.158;2022-08-18T15:41:45;6.97;;;3.70;;
69754;SDS011;57023;52.218;5.158;2022-08-18T15:44:13;7.90;;;3.80;;
69754;SDS011;57023;52.218;5.158;2022-08-18T15:46:39;4.88;;;3.45;;
69754;SDS011;57023;52.218;5.158;2022-08-18T15:49:08;6.75;;;3.70;;
69754;SDS011;57023;52.218;5.158;2022-08-18T15:51:34;5.23;;;3.80;;
69754;SDS011;57023;52.218;5.158;2022-08-18T15:56:25;9.60;;;4.00;;
69754;SDS011;57023;52.218;5.158;2022-08-18T15:58:52;9.25;;;4.10;;
69754;SDS011;57023;52.218;5.158;2022-08-18T16:01:18;5.73;;;3.60;;
69754;SDS011;57023;52.218;5.158;2022-08-18T16:03:45;6.20;;;3.90;;
69754;SDS011;57023;52.218;5.158;2022-08-18T16:06:11;7.13;;;3.87;;
69754;SDS011;57023;52.218;5.158;2022-08-18T16:08:38;6.40;;;3.80;;
69754;SDS011;57023;52.218;5.158;2022-08-18T16:11:08;5.73;;;3.93;;
69754;SDS011;57023;52.218;5.158;2022-08-18T16:13:34;6.50;;;4.00;;
69754;SDS011;57023;52.218;5.158;2022-08-18T16:16:02;6.33;;;3.93;;
69754;SDS011;57023;52.218;5.158;2022-08-18T16:18:32;6.47;;;4.05;;
69754;SDS011;57023;52.218;5.158;2022-08-18T16:21:02;5.73;;;3.77;;
69754;SDS011;57023;52.218;5.158;2022-08-18T16:23:29;5.00;;;3.90;;
69754;SDS011;57023;52.218;5.158;2022-08-18T16:25:58;6.97;;;3.63;;
69754;SDS011;57023;52.218;5.158;2022-08-18T16:28:25;6.20;;;3.95;;
69754;SDS011;57023;52.218;5.158;2022-08-18T16:30:50;7.60;;;3.77;;
69754;SDS011;57023;52.218;5.158;2022-08-18T16:33:15;4.90;;;3.50;;
69754;SDS011;57023;52.218;5.158;2022-08-18T16:35:41;5.10;;;3.50;;
69754;SDS011;57023;52.218;5.158;2022-08-18T16:38:08;6.45;;;3.60;;
69754;SDS011;57023;52.218;5.158;2022-08-18T16:40:33;5.20;;;3.60;;
69754;SDS011;57023;52.218;5.158;2022-08-18T16:42:59;5.30;;;3.30;;
69754;SDS011;57023;52.218;5.158;2022-08-18T16:45:31;5.32;;;3.42;;
69754;SDS011;57023;52.218;5.158;2022-08-18T16:47:58;6.93;;;3.63;;
69754;SDS011;57023;52.218;5.158;2022-08-18T16:50:23;5.43;;;3.30;;
69754;SDS011;57023;52.218;5.158;2022-08-18T16:52:51;5.10;;;3.60;;
69754;SDS011;57023;52.218;5.158;2022-08-18T16:55:17;4.95;;;3.58;;
69754;SDS011;57023;52.218;5.158;2022-08-18T16:57:43;5.43;;;3.30;;
69754;SDS011;57023;52.218;5.158;2022-08-18T17:00:28;5.53;;;3.30;;
69754;SDS011;57023;52.218;5.158;2022-08-18T17:03:13;4.50;;;3.30;;
69754;SDS011;57023;52.218;5.158;2022-08-18T17:05:57;5.50;;;3.40;;
69754;SDS011;57023;52.218;5.158;2022-08-18T17:08:23;4.97;;;3.08;;
69754;SDS011;57023;52.218;5.158;2022-08-18T17:10:49;5.03;;;3.20;;
69754;SDS011;57023;52.218;5.158;2022-08-18T17:13:14;4.57;;;3.20;;
69754;SDS011;57023;52.218;5.158;2022-08-18T17:15:40;4.73;;;3.17;;
69754;SDS011;57023;52.218;5.158;2022-08-18T17:18:05;4.57;;;2.90;;
69754;SDS011;57023;52.218;5.158;2022-08-18T17:20:32;4.53;;;3.00;;
69754;SDS011;57023;52.218;5.158;2022-08-18T17:22:59;4.32;;;2.90;;
69754;SDS011;57023;52.218;5.158;2022-08-18T17:25:24;4.90;;;2.90;;
69754;SDS011;57023;52.218;5.158;2022-08-18T17:27:51;4.40;;;3.15;;
69754;SDS011;57023;52.218;5.158;2022-08-18T17:30:17;6.97;;;3.30;;